createdAt,value
2019-02-15T00:00:34.782Z,36.35
2019-02-15T00:02:27.753Z,35.49
2019-02-15T00:03:27.805Z,36.44
2019-02-15T00:05:20.782Z,35.68
2019-02-15T00:06:20.833Z,36.44
2019-02-15T00:08:13.801Z,35.30
2019-02-15T00:09:13.853Z,34.83
2019-02-15T00:11:06.829Z,34.74
2019-02-15T00:12:06.878Z,34.64
2019-02-15T00:13:59.853Z,34.64
2019-02-15T00:14:59.906Z,34.36
2019-02-15T00:16:52.890Z,33.50
2019-02-15T00:17:52.937Z,33.12
2019-02-15T00:19:45.910Z,33.79
2019-02-15T00:20:45.961Z,34.74
2019-02-15T00:22:38.940Z,36.63
2019-02-15T00:23:38.987Z,38.43
2019-02-15T00:25:31.982Z,37.95
2019-02-15T00:26:32.015Z,37.76
2019-02-15T00:28:24.993Z,37.10
2019-02-15T00:29:25.045Z,35.58
2019-02-15T00:31:18.026Z,34.45
2019-02-15T00:32:18.072Z,34.45
2019-02-15T00:34:11.039Z,34.07
2019-02-15T00:35:11.096Z,34.74
2019-02-15T00:37:04.076Z,35.21
2019-02-15T00:38:04.118Z,35.02
2019-02-15T00:39:57.091Z,34.55
2019-02-15T00:40:57.137Z,34.36
2019-02-15T00:42:50.121Z,33.60
2019-02-15T00:43:50.167Z,35.02
2019-02-15T00:45:43.148Z,37.38
2019-02-15T00:46:43.198Z,37.95
2019-02-15T00:48:36.170Z,37.01
2019-02-15T00:49:36.221Z,36.44
2019-02-15T00:51:29.197Z,35.30
2019-02-15T00:52:29.244Z,35.21
2019-02-15T00:54:22.239Z,34.26
2019-02-15T00:55:22.269Z,33.98
2019-02-15T00:57:15.251Z,34.07
2019-02-15T00:58:15.298Z,34.25
2019-02-15T01:00:08.270Z,34.81
2019-02-15T01:01:08.324Z,34.06
2019-02-15T01:03:01.303Z,34.64
2019-02-15T01:04:01.349Z,34.44
2019-02-15T01:05:54.327Z,33.30
2019-02-15T01:06:54.372Z,33.12
2019-02-15T01:08:47.343Z,34.34
2019-02-15T01:09:47.395Z,34.72
2019-02-15T01:11:40.370Z,35.19
2019-02-15T01:12:40.418Z,35.10
2019-02-15T01:14:33.388Z,34.81
2019-02-15T01:15:33.444Z,34.34
2019-02-15T01:17:26.434Z,33.77
2019-02-15T01:18:26.472Z,34.06
2019-02-15T01:20:19.443Z,34.55
2019-02-15T01:21:19.491Z,35.00
2019-02-15T01:23:12.482Z,35.11
2019-02-15T01:24:12.523Z,35.85
2019-02-15T01:26:05.562Z,36.04
2019-02-15T01:27:05.553Z,36.06
2019-02-15T01:28:58.531Z,36.14
2019-02-15T01:29:58.580Z,35.66
2019-02-15T01:31:51.560Z,34.06
2019-02-15T01:32:51.619Z,33.49
2019-02-15T01:34:44.579Z,33.49
2019-02-15T01:35:44.633Z,32.64
2019-02-15T01:37:37.618Z,34.15
2019-02-15T01:38:37.655Z,33.77
2019-02-15T01:40:30.632Z,33.77
2019-02-15T01:41:30.683Z,33.39
2019-02-15T01:43:23.658Z,33.01
2019-02-15T01:44:23.847Z,32.92
2019-02-15T01:46:16.682Z,32.54
2019-02-15T01:47:16.730Z,31.79
2019-02-15T01:49:09.706Z,31.12
2019-02-15T01:50:09.764Z,31.22
2019-02-15T01:52:02.739Z,30.84
2019-02-15T01:53:02.784Z,30.93
2019-02-15T01:54:55.758Z,31.12
2019-02-15T01:55:55.806Z,32.35
2019-02-15T01:57:48.785Z,33.68
2019-02-15T01:58:48.833Z,32.64
2019-02-15T02:00:41.803Z,31.50
2019-02-15T02:01:41.859Z,31.69
2019-02-15T02:03:34.834Z,31.69
2019-02-15T02:04:34.881Z,31.60
2019-02-15T02:06:27.856Z,31.41
2019-02-15T02:07:27.909Z,31.12
2019-02-15T02:09:20.879Z,31.03
2019-02-15T02:10:20.932Z,31.12
2019-02-15T02:12:13.912Z,31.69
2019-02-15T02:13:13.961Z,31.41
2019-02-15T02:15:06.927Z,30.93
2019-02-15T02:16:06.979Z,30.93
2019-02-15T02:17:59.959Z,31.12
2019-02-15T02:19:00.009Z,31.31
2019-02-15T02:20:52.990Z,32.64
2019-02-15T02:21:53.046Z,32.45
2019-02-15T02:23:46.018Z,32.35
2019-02-15T02:24:46.066Z,31.98
2019-02-15T02:26:39.059Z,32.17
2019-02-15T02:27:39.133Z,32.35
2019-02-15T02:29:32.098Z,33.30
2019-02-15T02:30:32.139Z,33.11
2019-02-15T02:32:25.143Z,32.54
2019-02-15T02:33:25.184Z,32.07
2019-02-15T02:35:18.176Z,30.46
2019-02-15T02:36:18.216Z,29.90
2019-02-15T02:38:11.187Z,30.36
2019-02-15T02:39:11.234Z,30.46
2019-02-15T02:41:04.203Z,31.98
2019-02-15T02:42:04.256Z,32.54
2019-02-15T02:43:59.588Z,32.26
2019-02-15T02:44:57.281Z,31.22
2019-02-15T02:46:50.254Z,31.41
2019-02-15T02:47:50.304Z,31.12
2019-02-15T02:49:43.286Z,31.60
2019-02-15T02:50:43.334Z,30.65
2019-02-15T02:52:36.323Z,31.22
2019-02-15T02:53:36.363Z,30.93
2019-02-15T02:55:29.335Z,31.79
2019-02-15T02:56:29.382Z,31.60
2019-02-15T02:58:22.376Z,31.50
2019-02-15T02:59:22.425Z,31.31
2019-02-15T03:01:15.407Z,31.60
2019-02-15T03:02:15.453Z,31.69
2019-02-15T03:04:08.435Z,31.12
2019-02-15T03:05:08.474Z,30.46
2019-02-15T03:07:01.439Z,30.65
2019-02-15T03:08:01.497Z,29.61
2019-02-15T03:09:54.492Z,28.85
2019-02-15T03:10:54.521Z,29.33
2019-02-15T03:12:47.498Z,29.61
2019-02-15T03:13:47.548Z,29.80
2019-02-15T03:15:40.530Z,30.08
2019-02-15T03:16:40.576Z,29.71
2019-02-15T03:18:33.554Z,28.95
2019-02-15T03:19:33.607Z,29.04
2019-02-15T03:21:26.578Z,29.33
2019-02-15T03:22:26.626Z,29.71
2019-02-15T03:24:19.609Z,29.80
2019-02-15T03:25:19.649Z,30.08
2019-02-15T03:27:12.640Z,30.46
2019-02-15T03:28:12.674Z,30.36
2019-02-15T03:30:05.652Z,31.31
2019-02-15T03:31:05.698Z,32.73
2019-02-15T03:32:58.676Z,33.01
2019-02-15T03:33:58.719Z,33.01
2019-02-15T03:35:51.689Z,32.45
2019-02-15T03:36:51.742Z,32.92
2019-02-15T03:38:44.719Z,33.39
2019-02-15T03:39:44.815Z,33.11
2019-02-15T03:41:37.734Z,31.79
2019-02-15T03:42:37.791Z,30.84
2019-02-15T03:44:30.777Z,31.03
2019-02-15T03:45:30.809Z,30.18
2019-02-15T03:47:24.289Z,28.76
2019-02-15T03:48:24.338Z,28.47
2019-02-15T03:50:17.315Z,27.15
2019-02-15T03:51:17.364Z,27.53
2019-02-15T03:53:10.348Z,28.19
2019-02-15T03:54:10.397Z,28.47
2019-02-15T03:56:03.393Z,28.38
2019-02-15T03:57:03.453Z,28.19
2019-02-15T03:58:56.422Z,28.85
2019-02-15T03:59:56.468Z,28.95
2019-02-15T04:01:49.438Z,29.61
2019-02-15T04:02:49.496Z,29.80
2019-02-15T04:04:42.465Z,30.16
2019-02-15T04:05:42.522Z,30.07
2019-02-15T04:07:35.491Z,30.16
2019-02-15T04:08:35.538Z,29.60
2019-02-15T04:10:28.514Z,28.65
2019-02-15T04:11:28.561Z,28.65
2019-02-15T04:13:21.546Z,28.74
2019-02-15T04:14:32.265Z,28.65
2019-02-15T04:16:14.560Z,28.08
2019-02-15T04:17:14.615Z,28.46
2019-02-15T04:19:07.595Z,29.12
2019-02-15T04:20:07.645Z,29.41
2019-02-15T04:22:00.608Z,30.26
2019-02-15T04:23:00.659Z,30.26
2019-02-15T04:24:53.635Z,30.54
2019-02-15T04:25:53.679Z,30.16
2019-02-15T04:27:46.648Z,29.97
2019-02-15T04:28:46.702Z,30.63
2019-02-15T04:30:39.700Z,31.20
2019-02-15T04:31:39.741Z,30.35
2019-02-15T04:33:32.717Z,30.44
2019-02-15T04:34:32.764Z,30.07
2019-02-15T04:36:25.751Z,30.54
2019-02-15T04:37:25.795Z,30.54
2019-02-15T04:39:18.764Z,30.82
2019-02-15T04:40:18.810Z,31.10
2019-02-15T04:42:11.785Z,30.44
2019-02-15T04:43:11.834Z,30.07
2019-02-15T04:45:04.818Z,30.07
2019-02-15T04:46:04.863Z,30.44
2019-02-15T04:47:58.340Z,30.91
2019-02-15T04:48:58.390Z,30.82
2019-02-15T04:50:51.366Z,30.54
2019-02-15T04:51:51.413Z,30.07
2019-02-15T04:53:44.389Z,28.74
2019-02-15T04:54:44.438Z,28.93
2019-02-15T04:56:37.402Z,29.50
2019-02-15T04:57:37.453Z,29.31
2019-02-15T04:59:30.431Z,29.60
2019-02-15T05:00:30.477Z,29.03
2019-02-15T05:02:23.469Z,28.65
2019-02-15T05:03:23.502Z,29.03
2019-02-15T05:05:16.476Z,29.03
2019-02-15T05:06:16.524Z,28.84
2019-02-15T05:08:09.493Z,28.74
2019-02-15T05:09:09.545Z,29.03
2019-02-15T05:11:02.521Z,28.55
2019-02-15T05:12:02.564Z,28.65
2019-02-15T05:13:55.549Z,26.95
2019-02-15T05:14:55.602Z,27.33
2019-02-15T05:16:48.558Z,27.33
2019-02-15T05:17:48.612Z,27.14
2019-02-15T05:19:41.606Z,27.51
2019-02-15T05:20:41.630Z,27.89
2019-02-15T05:22:34.603Z,27.51
2019-02-15T05:23:34.651Z,27.51
2019-02-15T05:25:27.655Z,27.98
2019-02-15T05:26:27.679Z,27.89
2019-02-15T05:28:20.646Z,27.98
2019-02-15T05:29:20.708Z,28.17
2019-02-15T05:31:13.683Z,28.08
2019-02-15T05:32:13.723Z,28.17
2019-02-15T05:34:06.703Z,28.27
2019-02-15T05:35:06.770Z,27.70
2019-02-15T05:36:59.723Z,28.17
2019-02-15T05:37:59.772Z,28.93
2019-02-15T05:39:52.750Z,31.10
2019-02-15T05:40:52.799Z,32.05
2019-02-15T05:42:45.769Z,32.53
2019-02-15T05:43:45.819Z,32.81
2019-02-15T05:45:39.651Z,31.48
2019-02-15T05:46:39.708Z,31.10
2019-02-15T05:48:32.664Z,31.01
2019-02-15T05:49:32.719Z,31.20
2019-02-15T05:51:25.694Z,30.35
2019-02-15T05:52:25.736Z,30.16
2019-02-15T05:54:18.724Z,30.16
2019-02-15T05:55:19.747Z,30.07
2019-02-15T05:57:11.739Z,30.07
2019-02-15T05:58:11.792Z,29.88
2019-02-15T06:00:04.766Z,30.07
2019-02-15T06:01:04.815Z,29.97
2019-02-15T06:02:57.779Z,30.73
2019-02-15T06:03:57.836Z,29.79
2019-02-15T06:05:50.802Z,28.84
2019-02-15T06:06:50.852Z,28.74
2019-02-15T06:08:43.837Z,28.55
2019-02-15T06:09:43.877Z,28.74
2019-02-15T06:11:36.859Z,28.46
2019-02-15T06:12:36.894Z,27.80
2019-02-15T06:14:30.386Z,27.70
2019-02-15T06:15:30.432Z,26.95
2019-02-15T06:17:23.427Z,27.14
2019-02-15T06:18:23.461Z,26.95
2019-02-15T06:20:16.467Z,26.66
2019-02-15T06:21:16.485Z,26.76
2019-02-15T06:23:09.458Z,27.89
2019-02-15T06:24:09.510Z,27.70
2019-02-15T06:26:02.487Z,27.61
2019-02-15T06:27:02.535Z,27.80
2019-02-15T06:28:55.501Z,26.57
2019-02-15T06:29:55.558Z,26.95
2019-02-15T06:31:48.529Z,27.61
2019-02-15T06:32:48.574Z,27.51
2019-02-15T06:34:41.547Z,27.89
2019-02-15T06:35:41.595Z,27.80
2019-02-15T06:37:34.587Z,26.85
2019-02-15T06:38:35.262Z,26.28
2019-02-15T06:40:27.622Z,26.66
2019-02-15T06:41:27.668Z,26.38
2019-02-15T06:43:20.636Z,27.51
2019-02-15T06:44:20.688Z,28.17
2019-02-15T06:46:13.664Z,28.46
2019-02-15T06:47:13.763Z,28.08
2019-02-15T06:49:06.687Z,27.33
2019-02-15T06:50:06.744Z,27.51
2019-02-15T06:51:59.729Z,28.93
2019-02-15T06:52:59.779Z,29.50
2019-02-15T06:54:52.765Z,29.88
2019-02-15T06:55:52.813Z,30.16
2019-02-15T06:57:45.780Z,28.65
2019-02-15T06:58:45.986Z,27.98
2019-02-15T07:00:38.808Z,27.80
2019-02-15T07:01:38.858Z,28.17
2019-02-15T07:03:31.821Z,28.46
2019-02-15T07:04:31.880Z,28.84
2019-02-15T07:06:24.855Z,28.93
2019-02-15T07:07:24.906Z,28.93
2019-02-15T07:09:17.870Z,29.41
2019-02-15T07:10:17.922Z,29.60
2019-02-15T07:12:10.904Z,29.69
2019-02-15T07:13:10.949Z,29.69
2019-02-15T07:15:03.933Z,29.03
2019-02-15T07:16:03.980Z,28.84
2019-02-15T07:17:56.945Z,28.84
2019-02-15T07:18:57.002Z,28.84
2019-02-15T07:20:49.973Z,29.03
2019-02-15T07:21:50.026Z,28.93
2019-02-15T07:23:43.008Z,29.60
2019-02-15T07:24:43.053Z,29.88
2019-02-15T07:26:36.038Z,29.50
2019-02-15T07:27:36.080Z,29.97
2019-02-15T07:29:29.052Z,29.31
2019-02-15T07:30:29.100Z,28.93
2019-02-15T07:32:22.091Z,28.47
2019-02-15T07:33:22.132Z,28.47
2019-02-15T07:35:15.118Z,28.47
2019-02-15T07:36:15.157Z,28.38
2019-02-15T07:38:08.123Z,28.09
2019-02-15T07:39:08.179Z,27.91
2019-02-15T07:41:01.195Z,28.09
2019-02-15T07:42:01.196Z,28.00
2019-02-15T07:43:54.198Z,26.87
2019-02-15T07:44:54.250Z,27.62
2019-02-15T07:46:47.222Z,28.00
2019-02-15T07:47:47.275Z,27.91
2019-02-15T07:49:40.240Z,27.72
2019-02-15T07:50:40.289Z,26.77
2019-02-15T07:52:33.268Z,26.96
2019-02-15T07:53:33.314Z,27.25
2019-02-15T07:55:26.303Z,27.06
2019-02-15T07:56:26.338Z,27.15
2019-02-15T07:58:19.305Z,31.15
2019-02-15T07:59:19.359Z,42.37
2019-02-15T08:01:12.341Z,76.90
2019-02-15T08:02:12.383Z,86.00
2019-02-15T08:04:06.830Z,95.32
2019-02-15T08:05:05.412Z,95.27
2019-02-15T08:06:58.389Z,91.70
2019-02-15T08:07:58.436Z,89.55
2019-02-15T08:09:51.405Z,85.50
2019-02-15T08:10:51.462Z,80.58
2019-02-15T08:12:44.449Z,76.86
2019-02-15T08:13:44.490Z,74.86
2019-02-15T08:15:37.470Z,71.91
2019-02-15T08:16:38.782Z,70.86
2019-02-15T08:18:30.494Z,71.94
2019-02-15T08:19:30.548Z,71.84
2019-02-15T08:21:23.530Z,70.89
2019-02-15T08:22:23.581Z,70.79
2019-02-15T08:24:16.595Z,70.64
2019-02-15T08:25:16.612Z,70.83
2019-02-15T08:27:09.592Z,68.73
2019-02-15T08:28:09.645Z,69.24
2019-02-15T08:30:02.617Z,68.51
2019-02-15T08:31:02.674Z,67.08
2019-02-15T08:32:55.656Z,66.13
2019-02-15T08:33:55.704Z,66.44
2019-02-15T08:35:48.694Z,64.62
2019-02-15T08:36:48.754Z,64.62
2019-02-15T08:38:41.741Z,64.09
2019-02-15T08:39:41.797Z,63.03
2019-02-15T08:41:34.777Z,63.99
2019-02-15T08:42:34.827Z,62.94
2019-02-15T08:44:27.811Z,59.62
2019-02-15T08:45:27.865Z,58.28
2019-02-15T08:47:20.854Z,59.17
2019-02-15T08:48:20.901Z,60.70
2019-02-15T08:50:13.914Z,60.51
2019-02-15T08:51:13.974Z,58.98
2019-02-15T08:53:06.961Z,57.09
2019-02-15T08:54:07.012Z,53.83
2019-02-15T08:56:00.001Z,55.58
2019-02-15T08:57:00.054Z,56.07
2019-02-15T08:58:53.045Z,55.97
2019-02-15T08:59:53.096Z,55.21
2019-02-15T09:01:46.084Z,55.68
2019-02-15T09:02:46.131Z,57.12
2019-02-15T09:04:39.125Z,54.63
2019-02-15T09:05:39.180Z,52.30
2019-02-15T09:07:32.162Z,53.83
2019-02-15T09:08:32.217Z,54.72
2019-02-15T09:10:25.194Z,50.65
2019-02-15T09:11:25.252Z,51.68
2019-02-15T09:13:18.239Z,52.56
2019-02-15T09:14:18.288Z,54.57
2019-02-15T09:16:11.271Z,54.48
2019-02-15T09:17:11.325Z,54.45
2019-02-15T09:19:04.312Z,54.61
2019-02-15T09:20:04.364Z,56.60
2019-02-15T09:21:57.354Z,56.76
2019-02-15T09:22:57.401Z,58.29
2019-02-15T09:24:50.399Z,60.07
2019-02-15T09:25:50.440Z,61.66
2019-02-15T09:27:43.427Z,64.69
2019-02-15T09:28:43.488Z,65.00
2019-02-15T09:30:36.463Z,76.98
2019-02-15T09:31:36.519Z,78.98
2019-02-15T09:33:29.506Z,79.99
2019-02-15T09:34:29.555Z,78.85
2019-02-15T09:36:22.540Z,80.04
2019-02-15T09:37:22.594Z,82.42
2019-02-15T09:39:15.584Z,84.23
2019-02-15T09:40:15.630Z,84.99
2019-02-15T09:42:08.618Z,82.32
2019-02-15T09:43:08.667Z,83.37
2019-02-15T09:45:01.647Z,84.61
2019-02-15T09:46:01.705Z,85.18
2019-02-15T09:47:54.687Z,84.70
2019-02-15T09:48:54.735Z,86.36
2019-02-15T09:50:47.714Z,84.84
2019-02-15T09:51:47.771Z,86.84
2019-02-15T09:53:40.761Z,85.13
2019-02-15T09:54:40.811Z,84.27
2019-02-15T09:56:33.789Z,84.75
2019-02-15T09:57:33.846Z,86.36
2019-02-15T09:59:26.836Z,86.46
2019-02-15T10:00:26.886Z,85.22
2019-02-15T10:02:19.929Z,84.94
2019-02-15T10:03:19.943Z,85.32
2019-02-15T10:05:12.917Z,83.98
2019-02-15T10:06:12.974Z,83.61
2019-02-15T10:08:05.972Z,84.41
2019-02-15T10:09:06.008Z,83.93
2019-02-15T10:10:59.001Z,82.12
2019-02-15T10:11:59.042Z,83.26
2019-02-15T10:13:52.049Z,80.88
2019-02-15T10:14:52.108Z,78.98
2019-02-15T10:16:45.072Z,78.41
2019-02-15T10:17:45.128Z,77.30
2019-02-15T10:19:38.108Z,80.35
2019-02-15T10:20:38.159Z,81.02
2019-02-15T10:22:31.142Z,78.92
2019-02-15T10:23:31.191Z,76.25
2019-02-15T10:25:24.189Z,74.73
2019-02-15T10:26:24.242Z,73.49
2019-02-15T10:28:17.226Z,73.11
2019-02-15T10:29:17.280Z,75.78
2019-02-15T10:31:10.255Z,74.19
2019-02-15T10:32:10.311Z,74.48
2019-02-15T10:34:03.292Z,78.39
2019-02-15T10:35:03.351Z,76.01
2019-02-15T10:36:56.321Z,75.81
2019-02-15T10:37:56.379Z,74.38
2019-02-15T10:39:49.368Z,72.19
2019-02-15T10:40:49.419Z,72.09
2019-02-15T10:42:42.912Z,71.72
2019-02-15T10:43:42.962Z,73.24
2019-02-15T10:45:35.941Z,73.52
2019-02-15T10:46:37.897Z,73.33
2019-02-15T10:48:28.986Z,70.51
2019-02-15T10:49:29.033Z,70.13
2019-02-15T10:51:22.013Z,69.84
2019-02-15T10:52:22.074Z,70.42
2019-02-15T10:54:15.056Z,71.84
2019-02-15T10:55:15.107Z,72.32
2019-02-15T10:57:08.149Z,70.22
2019-02-15T10:58:08.146Z,71.08
2019-02-15T11:00:01.132Z,70.13
2019-02-15T11:01:01.181Z,70.45
2019-02-15T11:02:54.173Z,69.02
2019-02-15T11:03:54.217Z,69.31
2019-02-15T11:05:47.198Z,69.87
2019-02-15T11:06:47.289Z,69.87
2019-02-15T11:08:40.765Z,69.02
2019-02-15T11:09:40.810Z,69.40
2019-02-15T11:11:33.807Z,71.78
2019-02-15T11:12:33.849Z,71.02
2019-02-15T11:14:26.843Z,69.31
2019-02-15T11:15:26.896Z,69.78
2019-02-15T11:17:19.872Z,68.82
2019-02-15T11:18:19.931Z,69.34
2019-02-15T11:20:12.970Z,69.05
2019-02-15T11:21:12.968Z,69.34
2019-02-15T11:23:05.957Z,69.91
2019-02-15T11:24:06.006Z,70.01
2019-02-15T11:25:58.986Z,71.53
2019-02-15T11:26:59.040Z,71.82
2019-02-15T11:28:52.031Z,71.25
2019-02-15T11:29:52.078Z,70.29
2019-02-15T11:31:45.062Z,69.09
2019-02-15T11:32:45.116Z,69.62
2019-02-15T11:34:38.100Z,70.33
2019-02-15T11:35:38.154Z,69.95
2019-02-15T11:37:31.133Z,71.38
2019-02-15T11:38:31.189Z,70.33
2019-02-15T11:40:24.178Z,72.62
2019-02-15T11:41:24.227Z,71.86
2019-02-15T11:43:17.220Z,71.00
2019-02-15T11:44:17.272Z,72.24
2019-02-15T11:46:10.264Z,71.47
2019-02-15T11:47:10.323Z,72.14
2019-02-15T11:49:03.316Z,69.76
2019-02-15T11:50:03.360Z,70.04
2019-02-15T11:51:56.351Z,70.33
2019-02-15T11:52:56.402Z,71.47
2019-02-15T11:54:49.384Z,70.27
2019-02-15T11:55:49.457Z,70.56
2019-02-15T11:57:42.426Z,73.71
2019-02-15T11:58:42.485Z,73.52
2019-02-15T12:00:35.473Z,70.36
2019-02-15T12:01:35.533Z,71.51
2019-02-15T12:03:28.519Z,69.79
2019-02-15T12:04:28.573Z,69.02
2019-02-15T12:06:21.587Z,70.46
2019-02-15T12:07:21.612Z,71.07
2019-02-15T12:09:14.610Z,69.44
2019-02-15T12:10:14.676Z,72.12
2019-02-15T12:12:10.822Z,71.16
2019-02-15T12:13:07.691Z,70.40
2019-02-15T12:15:00.690Z,72.60
2019-02-15T12:16:00.742Z,70.30
2019-02-15T12:17:53.726Z,69.92
2019-02-15T12:18:53.803Z,67.91
2019-02-15T12:20:46.774Z,68.77
2019-02-15T12:21:46.829Z,70.68
2019-02-15T12:23:39.860Z,68.77
2019-02-15T12:24:39.871Z,69.15
2019-02-15T12:26:32.859Z,70.15
2019-02-15T12:27:32.918Z,68.80
2019-02-15T12:29:25.909Z,68.71
2019-02-15T12:30:25.960Z,68.62
2019-02-15T12:32:18.951Z,68.90
2019-02-15T12:33:19.005Z,70.43
2019-02-15T12:35:12.008Z,71.11
2019-02-15T12:36:12.043Z,70.91
2019-02-15T12:38:05.023Z,68.80
2019-02-15T12:39:05.082Z,68.80
2019-02-15T12:40:58.072Z,67.66
2019-02-15T12:41:58.123Z,66.99
2019-02-15T12:43:51.115Z,66.41
2019-02-15T12:44:51.166Z,66.22
2019-02-15T12:46:44.157Z,68.33
2019-02-15T12:47:44.214Z,68.80
2019-02-15T12:49:37.207Z,66.74
2019-02-15T12:50:37.257Z,66.93
2019-02-15T12:52:30.245Z,67.60
2019-02-15T12:53:30.301Z,68.74
2019-02-15T12:55:23.293Z,69.99
2019-02-15T12:56:23.345Z,68.46
2019-02-15T12:58:16.333Z,67.41
2019-02-15T12:59:16.394Z,67.50
2019-02-15T13:01:09.384Z,67.69
2019-02-15T13:02:09.440Z,67.11
2019-02-15T13:04:02.428Z,67.98
2019-02-15T13:05:02.490Z,69.89
2019-02-15T13:06:55.504Z,68.46
2019-02-15T13:07:55.560Z,67.98
2019-02-15T13:09:48.550Z,67.50
2019-02-15T13:10:48.604Z,67.69
2019-02-15T13:12:41.586Z,68.55
2019-02-15T13:13:41.648Z,69.51
2019-02-15T13:15:34.639Z,67.98
2019-02-15T13:16:34.687Z,68.40
2019-02-15T13:18:27.670Z,66.35
2019-02-15T13:19:27.726Z,66.38
2019-02-15T13:21:20.725Z,67.98
2019-02-15T13:22:20.769Z,67.63
2019-02-15T13:24:13.754Z,67.98
2019-02-15T13:25:13.819Z,67.44
2019-02-15T13:27:08.310Z,67.15
2019-02-15T13:28:08.368Z,67.05
2019-02-15T13:30:01.362Z,67.91
2019-02-15T13:31:01.411Z,67.63
2019-02-15T13:32:54.415Z,68.30
2019-02-15T13:33:54.457Z,68.01
2019-02-15T13:35:47.958Z,69.26
2019-02-15T13:36:48.001Z,68.78
2019-02-15T13:38:40.986Z,68.30
2019-02-15T13:39:41.228Z,68.40
2019-02-15T13:41:34.038Z,68.49
2019-02-15T13:42:34.092Z,69.17
2019-02-15T13:44:27.083Z,67.82
2019-02-15T13:45:29.395Z,68.01
2019-02-15T13:47:20.122Z,66.48
2019-02-15T13:48:20.182Z,67.05
2019-02-15T13:50:13.227Z,65.91
2019-02-15T13:51:13.231Z,65.62
2019-02-15T13:53:06.210Z,66.58
2019-02-15T13:54:06.270Z,68.68
2019-02-15T13:55:59.260Z,66.58
2019-02-15T13:56:59.316Z,66.38
2019-02-15T13:58:52.289Z,66.86
2019-02-15T13:59:52.352Z,67.91
2019-02-15T14:01:45.358Z,68.59
2019-02-15T14:02:45.393Z,67.82
2019-02-15T14:04:38.393Z,69.29
2019-02-15T14:05:38.448Z,69.58
2019-02-15T14:07:31.435Z,69.07
2019-02-15T14:08:31.494Z,68.49
2019-02-15T14:10:24.501Z,68.14
2019-02-15T14:11:24.555Z,67.95
2019-02-15T14:13:18.045Z,66.51
2019-02-15T14:14:18.093Z,66.89
2019-02-15T14:16:11.145Z,66.71
2019-02-15T14:17:11.161Z,66.51
2019-02-15T14:19:04.147Z,66.71
2019-02-15T14:20:04.208Z,66.61
2019-02-15T14:21:57.214Z,66.61
2019-02-15T14:22:57.258Z,66.80
2019-02-15T14:24:50.251Z,67.76
2019-02-15T14:25:50.302Z,67.76
2019-02-15T14:27:44.792Z,66.51
2019-02-15T14:28:44.911Z,66.55
2019-02-15T14:30:37.846Z,66.13
2019-02-15T14:31:37.894Z,65.68
2019-02-15T14:33:30.886Z,65.97
2019-02-15T14:34:30.937Z,65.59
2019-02-15T14:36:23.931Z,66.83
2019-02-15T14:37:23.979Z,65.65
2019-02-15T14:39:16.966Z,66.83
2019-02-15T14:40:17.023Z,65.59
2019-02-15T14:42:10.015Z,66.45
2019-02-15T14:43:10.064Z,66.45
2019-02-15T14:45:03.061Z,65.97
2019-02-15T14:46:03.107Z,66.83
2019-02-15T14:47:56.102Z,66.80
2019-02-15T14:48:56.155Z,66.51
2019-02-15T14:50:49.148Z,66.32
2019-02-15T14:51:49.196Z,67.09
2019-02-15T14:53:42.184Z,67.85
2019-02-15T14:54:42.246Z,66.55
2019-02-15T14:56:35.251Z,66.74
2019-02-15T14:57:35.299Z,66.03
2019-02-15T14:59:28.281Z,65.88
2019-02-15T15:00:28.369Z,66.16
2019-02-15T15:02:21.334Z,66.16
2019-02-15T15:03:21.395Z,66.42
2019-02-15T15:05:14.380Z,66.93
2019-02-15T15:06:14.432Z,66.80
2019-02-15T15:08:07.424Z,66.89
2019-02-15T15:09:07.477Z,67.95
2019-02-15T15:11:00.473Z,66.99
2019-02-15T15:12:00.534Z,67.57
2019-02-15T15:13:53.511Z,67.57
2019-02-15T15:14:53.574Z,67.38
2019-02-15T15:16:46.568Z,68.05
2019-02-15T15:17:46.616Z,68.24
2019-02-15T15:19:39.601Z,67.57
2019-02-15T15:20:39.661Z,67.60
2019-02-15T15:22:32.668Z,67.66
2019-02-15T15:23:32.723Z,67.76
2019-02-15T15:25:25.711Z,68.14
2019-02-15T15:26:25.765Z,68.72
2019-02-15T15:28:18.760Z,68.43
2019-02-15T15:29:18.813Z,68.49
2019-02-15T15:31:11.813Z,68.72
2019-02-15T15:32:11.856Z,68.14
2019-02-15T15:34:04.849Z,68.24
2019-02-15T15:35:04.900Z,68.52
2019-02-15T15:36:57.904Z,68.91
2019-02-15T15:37:57.958Z,68.52
2019-02-15T15:39:50.952Z,67.57
2019-02-15T15:40:51.001Z,67.76
2019-02-15T15:42:43.994Z,68.81
2019-02-15T15:43:44.043Z,69.20
2019-02-15T15:45:37.051Z,69.54
2019-02-15T15:46:37.092Z,69.26
2019-02-15T15:48:30.081Z,70.21
2019-02-15T15:49:30.141Z,70.03
2019-02-15T15:51:23.136Z,69.45
2019-02-15T15:52:23.191Z,70.12
2019-02-15T15:54:16.184Z,70.03
2019-02-15T15:55:17.733Z,69.83
2019-02-15T15:57:09.240Z,69.93
2019-02-15T15:58:09.297Z,70.03
2019-02-15T16:00:02.280Z,70.50
2019-02-15T16:01:02.340Z,70.31
2019-02-15T16:02:55.335Z,71.08
2019-02-15T16:03:55.411Z,71.17
2019-02-15T16:05:48.380Z,71.56
2019-02-15T16:06:48.432Z,71.91
2019-02-15T16:08:41.413Z,72.00
2019-02-15T16:09:41.473Z,71.81
2019-02-15T16:11:34.464Z,71.52
2019-02-15T16:12:34.513Z,72.58
2019-02-15T16:14:27.492Z,72.67
2019-02-15T16:15:27.556Z,72.38
2019-02-15T16:17:20.544Z,73.34
2019-02-15T16:18:20.605Z,73.34
2019-02-15T16:20:13.612Z,74.16
2019-02-15T16:21:13.679Z,74.55
2019-02-15T16:23:06.664Z,75.02
2019-02-15T16:24:12.765Z,76.08
2019-02-15T16:25:59.709Z,76.08
2019-02-15T16:26:59.757Z,75.98
2019-02-15T16:28:52.770Z,76.65
2019-02-15T16:29:52.809Z,76.84
2019-02-15T16:31:45.807Z,77.51
2019-02-15T16:32:45.860Z,77.23
2019-02-15T16:34:38.840Z,77.38
2019-02-15T16:35:38.908Z,78.24
2019-02-15T16:37:31.892Z,79.29
2019-02-15T16:38:31.942Z,79.96
2019-02-15T16:40:24.924Z,81.16
2019-02-15T16:41:24.982Z,81.74
2019-02-15T16:43:17.972Z,83.65
2019-02-15T16:44:18.025Z,84.23
2019-02-15T16:46:11.016Z,84.95
2019-02-15T16:47:11.067Z,85.42
2019-02-15T16:49:04.057Z,84.23
2019-02-15T16:50:04.119Z,83.76
2019-02-15T16:51:57.113Z,83.34
2019-02-15T16:52:57.164Z,82.19
2019-02-15T16:54:50.154Z,81.62
2019-02-15T16:55:50.206Z,80.85
2019-02-15T16:57:43.239Z,80.24
2019-02-15T16:58:43.247Z,78.23
2019-02-15T17:00:36.229Z,77.57
2019-02-15T17:01:36.298Z,77.53
2019-02-15T17:03:29.276Z,75.91
2019-02-15T17:04:29.328Z,74.96
2019-02-15T17:06:23.380Z,74.67
2019-02-15T17:07:22.370Z,75.72
2019-02-15T17:09:15.375Z,73.81
2019-02-15T17:10:15.422Z,73.01
2019-02-15T17:12:08.423Z,72.25
2019-02-15T17:13:08.455Z,71.77
2019-02-15T17:15:01.435Z,69.68
2019-02-15T17:16:01.487Z,74.73
2019-02-15T17:17:54.497Z,73.68
2019-02-15T17:18:54.542Z,72.92
2019-02-15T17:20:47.551Z,73.30
2019-02-15T17:21:47.583Z,76.54
2019-02-15T17:23:40.576Z,74.54
2019-02-15T17:24:40.620Z,74.63
2019-02-15T17:26:33.607Z,74.63
2019-02-15T17:27:33.658Z,72.92
2019-02-15T17:29:26.649Z,73.93
2019-02-15T17:30:26.699Z,72.50
2019-02-15T17:32:19.693Z,72.60
2019-02-15T17:33:19.745Z,72.02
2019-02-15T17:35:12.735Z,74.02
2019-02-15T17:36:12.807Z,71.83
2019-02-15T17:38:05.838Z,71.83
2019-02-15T17:39:05.830Z,71.45
2019-02-15T17:40:58.848Z,70.40
2019-02-15T17:41:58.870Z,69.45
2019-02-15T17:43:51.863Z,67.32
2019-02-15T17:44:51.915Z,65.70
2019-02-15T17:46:44.904Z,65.70
2019-02-15T17:47:44.953Z,64.75
2019-02-15T17:49:37.935Z,61.32
2019-02-15T17:50:37.994Z,60.56
2019-02-15T17:52:30.985Z,60.27
2019-02-15T17:53:31.035Z,59.58
2019-02-15T17:55:24.019Z,58.53
2019-02-15T17:56:24.109Z,57.67
2019-02-15T17:58:17.144Z,55.58
2019-02-15T17:59:17.156Z,55.77
2019-02-15T18:01:10.100Z,56.05
2019-02-15T18:02:10.159Z,55.68
2019-02-15T18:04:03.153Z,55.10
2019-02-15T18:05:03.210Z,55.10
2019-02-15T18:06:56.199Z,54.63
2019-02-15T18:07:56.248Z,54.15
2019-02-15T18:09:49.236Z,54.25
2019-02-15T18:10:49.302Z,53.39
2019-02-15T18:12:42.283Z,53.67
2019-02-15T18:13:42.327Z,52.61
2019-02-15T18:15:35.310Z,50.99
2019-02-15T18:16:35.368Z,50.79
2019-02-15T18:18:28.354Z,52.51
2019-02-15T18:19:28.405Z,52.32
2019-02-15T18:21:21.391Z,51.93
2019-02-15T18:22:21.447Z,50.89
2019-02-15T18:24:14.439Z,50.13
2019-02-15T18:25:14.485Z,49.94
2019-02-15T18:27:07.500Z,49.65
2019-02-15T18:28:07.565Z,48.99
2019-02-15T18:30:00.543Z,49.85
2019-02-15T18:31:00.577Z,52.03
2019-02-15T18:32:53.556Z,56.41
2019-02-15T18:33:53.608Z,57.65